Terminal Aerodrome Forecast
Issued by NWS Wichita, KS

Home | Current Version | Previous Version | Text Only | Print | Product List | Glossary On
Versions: 1 2 3 4 5 6 7 8 9 10 11 12 13 14 15
760
FTUS43 KICT 091722
TAFICT
TAF
KICT 091722Z 0918/1018 16012KT P6SM OVC050
     FM100000 15007KT P6SM BKN100
     FM101500 16013KT P6SM SCT150=

USA.gov is the U.S. government's official web portal to all federal, state and local government web resources and services.